sensor_id;sensor_type;location;lat;lon;timestamp;temperature;humidity
11848;DHT22;5983;49.966;8.052;2023-09-18T00:02:14;19.50;99.90
11848;DHT22;5983;49.966;8.052;2023-09-18T00:04:41;19.50;99.90
11848;DHT22;5983;49.966;8.052;2023-09-18T00:07:07;19.50;99.90
11848;DHT22;5983;49.966;8.052;2023-09-18T00:09:36;19.50;99.90
11848;DHT22;5983;49.966;8.052;2023-09-18T00:12:03;19.50;99.90
11848;DHT22;5983;49.966;8.052;2023-09-18T00:14:30;19.50;99.90
11848;DHT22;5983;49.966;8.052;2023-09-18T00:16:58;19.40;99.90
11848;DHT22;5983;49.966;8.052;2023-09-18T00:19:25;19.50;99.90
11848;DHT22;5983;49.966;8.052;2023-09-18T00:21:52;19.40;99.90
11848;DHT22;5983;49.966;8.052;2023-09-18T00:24:19;19.40;99.90
11848;DHT22;5983;49.966;8.052;2023-09-18T00:26:47;19.40;99.90
11848;DHT22;5983;49.966;8.052;2023-09-18T00:29:14;19.30;99.90
11848;DHT22;5983;49.966;8.052;2023-09-18T00:31:40;19.30;99.90
11848;DHT22;5983;49.966;8.052;2023-09-18T00:34:08;19.30;99.90
11848;DHT22;5983;49.966;8.052;2023-09-18T00:36:35;19.40;99.90
11848;DHT22;5983;49.966;8.052;2023-09-18T00:39:02;19.30;99.90
11848;DHT22;5983;49.966;8.052;2023-09-18T00:41:29;19.30;99.90
11848;DHT22;5983;49.966;8.052;2023-09-18T00:43:56;19.30;99.90
11848;DHT22;5983;49.966;8.052;2023-09-18T00:46:23;19.30;99.90
11848;DHT22;5983;49.966;8.052;2023-09-18T00:48:50;19.30;99.90
11848;DHT22;5983;49.966;8.052;2023-09-18T00:51:18;19.40;99.90
11848;DHT22;5983;49.966;8.052;2023-09-18T00:53:46;19.30;99.90
11848;DHT22;5983;49.966;8.052;2023-09-18T00:56:14;19.30;99.90
11848;DHT22;5983;49.966;8.052;2023-09-18T00:58:42;19.20;99.90
11848;DHT22;5983;49.966;8.052;2023-09-18T01:01:09;19.20;99.90
11848;DHT22;5983;49.966;8.052;2023-09-18T01:03:37;19.20;99.90
11848;DHT22;5983;49.966;8.052;2023-09-18T01:06:04;19.20;99.90
11848;DHT22;5983;49.966;8.052;2023-09-18T01:08:32;19.10;99.90
11848;DHT22;5983;49.966;8.052;2023-09-18T01:11:01;19.10;99.90
11848;DHT22;5983;49.966;8.052;2023-09-18T01:13:35;19.10;99.90
11848;DHT22;5983;49.966;8.052;2023-09-18T01:16:07;19.20;99.90
11848;DHT22;5983;49.966;8.052;2023-09-18T01:18:48;19.10;99.90
11848;DHT22;5983;49.966;8.052;2023-09-18T01:21:15;19.10;99.90
11848;DHT22;5983;49.966;8.052;2023-09-18T01:23:43;19.10;99.90
11848;DHT22;5983;49.966;8.052;2023-09-18T01:26:10;19.10;99.90
11848;DHT22;5983;49.966;8.052;2023-09-18T01:28:37;19.10;99.90
11848;DHT22;5983;49.966;8.052;2023-09-18T01:31:03;19.10;99.90
11848;DHT22;5983;49.966;8.052;2023-09-18T01:33:30;19.10;99.90
11848;DHT22;5983;49.966;8.052;2023-09-18T01:35:57;19.10;99.90
11848;DHT22;5983;49.966;8.052;2023-09-18T01:38:25;19.10;99.90
11848;DHT22;5983;49.966;8.052;2023-09-18T01:40:55;19.20;99.90
11848;DHT22;5983;49.966;8.052;2023-09-18T01:43:21;19.20;99.90
11848;DHT22;5983;49.966;8.052;2023-09-18T01:45:48;19.20;99.90
11848;DHT22;5983;49.966;8.052;2023-09-18T01:48:15;19.20;99.90
11848;DHT22;5983;49.966;8.052;2023-09-18T01:50:42;19.20;99.90
11848;DHT22;5983;49.966;8.052;2023-09-18T01:53:09;19.20;99.90
11848;DHT22;5983;49.966;8.052;2023-09-18T01:55:36;19.20;99.90
11848;DHT22;5983;49.966;8.052;2023-09-18T01:58:04;19.20;99.90
11848;DHT22;5983;49.966;8.052;2023-09-18T02:00:31;19.30;99.90
11848;DHT22;5983;49.966;8.052;2023-09-18T02:02:59;19.40;99.90
11848;DHT22;5983;49.966;8.052;2023-09-18T02:05:25;19.50;99.90
11848;DHT22;5983;49.966;8.052;2023-09-18T02:07:52;19.50;99.90
11848;DHT22;5983;49.966;8.052;2023-09-18T02:10:19;19.60;99.90
11848;DHT22;5983;49.966;8.052;2023-09-18T02:12:46;19.60;99.90
11848;DHT22;5983;49.966;8.052;2023-09-18T02:15:15;19.60;99.90
11848;DHT22;5983;49.966;8.052;2023-09-18T02:17:42;19.60;99.90
11848;DHT22;5983;49.966;8.052;2023-09-18T02:20:09;19.60;99.90
11848;DHT22;5983;49.966;8.052;2023-09-18T02:22:37;19.60;99.90
11848;DHT22;5983;49.966;8.052;2023-09-18T02:25:05;19.60;99.90
11848;DHT22;5983;49.966;8.052;2023-09-18T02:27:32;19.60;99.90
11848;DHT22;5983;49.966;8.052;2023-09-18T02:29:59;19.60;99.90
11848;DHT22;5983;49.966;8.052;2023-09-18T02:32:28;19.50;99.90
11848;DHT22;5983;49.966;8.052;2023-09-18T02:34:56;19.50;99.90
11848;DHT22;5983;49.966;8.052;2023-09-18T02:37:23;19.40;99.90
11848;DHT22;5983;49.966;8.052;2023-09-18T02:39:50;19.40;99.90
11848;DHT22;5983;49.966;8.052;2023-09-18T02:42:17;19.40;99.90
11848;DHT22;5983;49.966;8.052;2023-09-18T02:44:44;19.40;99.90
11848;DHT22;5983;49.966;8.052;2023-09-18T02:47:11;19.40;99.90
11848;DHT22;5983;49.966;8.052;2023-09-18T02:49:39;19.40;99.90
11848;DHT22;5983;49.966;8.052;2023-09-18T02:52:06;19.40;99.90
11848;DHT22;5983;49.966;8.052;2023-09-18T02:54:33;19.40;99.90
11848;DHT22;5983;49.966;8.052;2023-09-18T02:57:00;19.40;99.90
11848;DHT22;5983;49.966;8.052;2023-09-18T02:59:26;19.30;99.90
11848;DHT22;5983;49.966;8.052;2023-09-18T03:01:53;19.30;99.90
11848;DHT22;5983;49.966;8.052;2023-09-18T03:04:20;19.30;99.90
11848;DHT22;5983;49.966;8.052;2023-09-18T03:06:48;19.30;99.90
11848;DHT22;5983;49.966;8.052;2023-09-18T03:09:15;19.30;99.90
11848;DHT22;5983;49.966;8.052;2023-09-18T03:11:44;19.20;99.90
11848;DHT22;5983;49.966;8.052;2023-09-18T03:14:11;19.20;99.90
11848;DHT22;5983;49.966;8.052;2023-09-18T03:16:38;19.20;99.90
11848;DHT22;5983;49.966;8.052;2023-09-18T03:19:05;19.20;99.90
11848;DHT22;5983;49.966;8.052;2023-09-18T03:21:32;19.20;99.90
11848;DHT22;5983;49.966;8.052;2023-09-18T03:24:02;19.30;99.90
11848;DHT22;5983;49.966;8.052;2023-09-18T03:26:29;19.30;99.90
11848;DHT22;5983;49.966;8.052;2023-09-18T03:28:56;19.30;99.90
11848;DHT22;5983;49.966;8.052;2023-09-18T03:31:24;19.30;99.90
11848;DHT22;5983;49.966;8.052;2023-09-18T03:33:51;19.30;99.90
11848;DHT22;5983;49.966;8.052;2023-09-18T03:36:20;19.30;99.90
11848;DHT22;5983;49.966;8.052;2023-09-18T03:38:47;19.30;99.90
11848;DHT22;5983;49.966;8.052;2023-09-18T03:41:15;19.30;99.90
11848;DHT22;5983;49.966;8.052;2023-09-18T03:43:42;19.30;99.90
11848;DHT22;5983;49.966;8.052;2023-09-18T03:46:09;19.30;99.90
11848;DHT22;5983;49.966;8.052;2023-09-18T03:48:36;19.30;99.90
11848;DHT22;5983;49.966;8.052;2023-09-18T03:51:03;19.20;99.90
11848;DHT22;5983;49.966;8.052;2023-09-18T03:53:33;19.20;99.90
11848;DHT22;5983;49.966;8.052;2023-09-18T03:56:00;19.20;99.90
11848;DHT22;5983;49.966;8.052;2023-09-18T03:58:29;19.10;99.90
11848;DHT22;5983;49.966;8.052;2023-09-18T04:00:56;19.10;99.90
11848;DHT22;5983;49.966;8.052;2023-09-18T04:03:22;19.10;99.90
11848;DHT22;5983;49.966;8.052;2023-09-18T04:05:49;19.10;99.90
11848;DHT22;5983;49.966;8.052;2023-09-18T04:08:16;19.10;99.90
11848;DHT22;5983;49.966;8.052;2023-09-18T04:10:43;19.10;99.90
11848;DHT22;5983;49.966;8.052;2023-09-18T04:13:10;19.10;99.90
11848;DHT22;5983;49.966;8.052;2023-09-18T04:15:38;19.10;99.90
11848;DHT22;5983;49.966;8.052;2023-09-18T04:18:05;19.10;99.90
11848;DHT22;5983;49.966;8.052;2023-09-18T04:20:32;19.10;99.90
11848;DHT22;5983;49.966;8.052;2023-09-18T04:23:20;19.10;99.90
11848;DHT22;5983;49.966;8.052;2023-09-18T04:25:51;19.10;99.90
11848;DHT22;5983;49.966;8.052;2023-09-18T04:28:20;19.10;99.90
11848;DHT22;5983;49.966;8.052;2023-09-18T04:30:49;19.10;99.90
11848;DHT22;5983;49.966;8.052;2023-09-18T04:33:16;19.10;99.90
11848;DHT22;5983;49.966;8.052;2023-09-18T04:35:43;19.10;99.90
11848;DHT22;5983;49.966;8.052;2023-09-18T04:38:09;19.00;99.90
11848;DHT22;5983;49.966;8.052;2023-09-18T04:40:36;19.10;99.90
11848;DHT22;5983;49.966;8.052;2023-09-18T04:43:03;19.10;99.90
11848;DHT22;5983;49.966;8.052;2023-09-18T04:45:31;19.10;99.90
11848;DHT22;5983;49.966;8.052;2023-09-18T04:47:59;19.00;99.90
11848;DHT22;5983;49.966;8.052;2023-09-18T04:50:26;19.00;99.90
11848;DHT22;5983;49.966;8.052;2023-09-18T04:52:53;19.00;99.90
11848;DHT22;5983;49.966;8.052;2023-09-18T04:55:21;18.90;99.90
11848;DHT22;5983;49.966;8.052;2023-09-18T04:57:48;19.00;99.90
11848;DHT22;5983;49.966;8.052;2023-09-18T05:00:15;18.90;99.90
11848;DHT22;5983;49.966;8.052;2023-09-18T05:02:43;18.90;99.90
11848;DHT22;5983;49.966;8.052;2023-09-18T05:05:14;18.90;99.90
11848;DHT22;5983;49.966;8.052;2023-09-18T05:07:40;18.90;99.90
11848;DHT22;5983;49.966;8.052;2023-09-18T05:10:08;18.90;99.90
11848;DHT22;5983;49.966;8.052;2023-09-18T05:12:37;18.90;99.90
11848;DHT22;5983;49.966;8.052;2023-09-18T05:15:06;19.00;99.90
11848;DHT22;5983;49.966;8.052;2023-09-18T05:17:41;19.00;99.90
11848;DHT22;5983;49.966;8.052;2023-09-18T05:20:10;19.00;99.90
11848;DHT22;5983;49.966;8.052;2023-09-18T05:22:42;19.00;99.90
11848;DHT22;5983;49.966;8.052;2023-09-18T05:25:09;19.00;99.90
11848;DHT22;5983;49.966;8.052;2023-09-18T05:27:39;19.00;99.90
11848;DHT22;5983;49.966;8.052;2023-09-18T05:30:12;19.00;99.90
11848;DHT22;5983;49.966;8.052;2023-09-18T05:32:41;18.90;99.90
11848;DHT22;5983;49.966;8.052;2023-09-18T05:35:09;18.90;99.90
11848;DHT22;5983;49.966;8.052;2023-09-18T05:37:40;19.00;99.90
11848;DHT22;5983;49.966;8.052;2023-09-18T05:40:09;19.00;99.90
11848;DHT22;5983;49.966;8.052;2023-09-18T05:42:38;19.00;99.90
11848;DHT22;5983;49.966;8.052;2023-09-18T05:45:08;19.00;99.90
11848;DHT22;5983;49.966;8.052;2023-09-18T05:47:36;19.00;99.90
11848;DHT22;5983;49.966;8.052;2023-09-18T05:50:03;19.00;99.90
11848;DHT22;5983;49.966;8.052;2023-09-18T05:52:32;19.10;99.90
11848;DHT22;5983;49.966;8.052;2023-09-18T05:58:59;19.00;99.90
11848;DHT22;5983;49.966;8.052;2023-09-18T06:01:26;19.00;99.90
11848;DHT22;5983;49.966;8.052;2023-09-18T06:03:53;19.00;99.90
11848;DHT22;5983;49.966;8.052;2023-09-18T06:06:19;19.10;99.90
11848;DHT22;5983;49.966;8.052;2023-09-18T06:08:46;19.10;99.90
11848;DHT22;5983;49.966;8.052;2023-09-18T06:11:13;19.10;99.90
11848;DHT22;5983;49.966;8.052;2023-09-18T06:13:40;19.10;99.90
11848;DHT22;5983;49.966;8.052;2023-09-18T06:16:08;19.10;99.90
11848;DHT22;5983;49.966;8.052;2023-09-18T06:18:34;19.10;99.90
11848;DHT22;5983;49.966;8.052;2023-09-18T06:21:03;19.10;99.90
11848;DHT22;5983;49.966;8.052;2023-09-18T06:23:30;19.10;99.90
11848;DHT22;5983;49.966;8.052;2023-09-18T06:25:57;19.20;99.90
11848;DHT22;5983;49.966;8.052;2023-09-18T06:28:24;19.20;99.90
11848;DHT22;5983;49.966;8.052;2023-09-18T06:30:51;19.20;99.90
11848;DHT22;5983;49.966;8.052;2023-09-18T06:33:22;19.30;99.90
11848;DHT22;5983;49.966;8.052;2023-09-18T06:35:49;19.30;99.90
11848;DHT22;5983;49.966;8.052;2023-09-18T06:38:17;19.30;99.90
11848;DHT22;5983;49.966;8.052;2023-09-18T06:40:43;19.40;99.90
11848;DHT22;5983;49.966;8.052;2023-09-18T06:43:10;19.40;99.90
11848;DHT22;5983;49.966;8.052;2023-09-18T06:45:37;19.40;99.90
11848;DHT22;5983;49.966;8.052;2023-09-18T06:48:04;19.50;99.90
11848;DHT22;5983;49.966;8.052;2023-09-18T06:50:33;19.50;99.90
11848;DHT22;5983;49.966;8.052;2023-09-18T06:53:00;19.50;99.90
11848;DHT22;5983;49.966;8.052;2023-09-18T06:55:26;19.50;99.90
11848;DHT22;5983;49.966;8.052;2023-09-18T06:57:53;19.50;99.90
11848;DHT22;5983;49.966;8.052;2023-09-18T07:00:20;19.60;99.90
11848;DHT22;5983;49.966;8.052;2023-09-18T07:02:47;19.60;99.90
11848;DHT22;5983;49.966;8.052;2023-09-18T07:05:14;19.70;99.90
11848;DHT22;5983;49.966;8.052;2023-09-18T07:07:42;19.80;99.90
11848;DHT22;5983;49.966;8.052;2023-09-18T07:10:09;19.80;99.90
11848;DHT22;5983;49.966;8.052;2023-09-18T07:12:36;19.90;99.90
11848;DHT22;5983;49.966;8.052;2023-09-18T07:15:03;20.00;99.90
11848;DHT22;5983;49.966;8.052;2023-09-18T07:17:31;20.00;99.90
11848;DHT22;5983;49.966;8.052;2023-09-18T07:19:58;20.00;99.90
11848;DHT22;5983;49.966;8.052;2023-09-18T07:22:25;20.10;99.90
11848;DHT22;5983;49.966;8.052;2023-09-18T07:24:53;20.10;99.90
11848;DHT22;5983;49.966;8.052;2023-09-18T07:27:20;20.10;99.90
11848;DHT22;5983;49.966;8.052;2023-09-18T07:29:46;20.20;99.90
11848;DHT22;5983;49.966;8.052;2023-09-18T07:32:14;20.20;99.90
11848;DHT22;5983;49.966;8.052;2023-09-18T07:34:41;20.20;99.90
11848;DHT22;5983;49.966;8.052;2023-09-18T07:37:07;20.20;99.90
11848;DHT22;5983;49.966;8.052;2023-09-18T07:39:34;20.30;99.90
11848;DHT22;5983;49.966;8.052;2023-09-18T07:42:03;20.40;99.90
11848;DHT22;5983;49.966;8.052;2023-09-18T07:44:30;20.40;99.90
11848;DHT22;5983;49.966;8.052;2023-09-18T07:46:57;20.40;99.90
11848;DHT22;5983;49.966;8.052;2023-09-18T07:49:23;20.50;99.90
11848;DHT22;5983;49.966;8.052;2023-09-18T07:51:50;20.60;99.90
11848;DHT22;5983;49.966;8.052;2023-09-18T07:54:17;20.60;99.90
11848;DHT22;5983;49.966;8.052;2023-09-18T07:56:43;20.60;99.90
11848;DHT22;5983;49.966;8.052;2023-09-18T07:59:11;20.70;99.90
11848;DHT22;5983;49.966;8.052;2023-09-18T08:01:39;20.70;99.90
11848;DHT22;5983;49.966;8.052;2023-09-18T08:04:07;20.70;99.90
11848;DHT22;5983;49.966;8.052;2023-09-18T08:06:33;20.70;99.90
11848;DHT22;5983;49.966;8.052;2023-09-18T08:09:00;20.80;99.90
11848;DHT22;5983;49.966;8.052;2023-09-18T08:11:27;20.80;99.90
11848;DHT22;5983;49.966;8.052;2023-09-18T08:16:37;20.80;99.90
11848;DHT22;5983;49.966;8.052;2023-09-18T08:19:04;20.80;99.90
11848;DHT22;5983;49.966;8.052;2023-09-18T08:21:32;20.90;99.90
11848;DHT22;5983;49.966;8.052;2023-09-18T08:23:58;21.00;99.90
11848;DHT22;5983;49.966;8.052;2023-09-18T08:26:25;20.90;99.90
11848;DHT22;5983;49.966;8.052;2023-09-18T08:28:52;21.00;99.90
11848;DHT22;5983;49.966;8.052;2023-09-18T08:31:19;21.00;99.90
11848;DHT22;5983;49.966;8.052;2023-09-18T08:33:47;21.00;99.90
11848;DHT22;5983;49.966;8.052;2023-09-18T08:36:14;20.90;99.90
11848;DHT22;5983;49.966;8.052;2023-09-18T08:38:41;20.90;99.90
11848;DHT22;5983;49.966;8.052;2023-09-18T08:41:09;20.90;99.90
11848;DHT22;5983;49.966;8.052;2023-09-18T08:43:38;20.90;99.90
11848;DHT22;5983;49.966;8.052;2023-09-18T08:46:09;20.90;99.90
11848;DHT22;5983;49.966;8.052;2023-09-18T08:48:36;20.90;99.90
11848;DHT22;5983;49.966;8.052;2023-09-18T08:51:06;20.90;99.90
11848;DHT22;5983;49.966;8.052;2023-09-18T08:53:35;20.90;99.90
11848;DHT22;5983;49.966;8.052;2023-09-18T08:56:02;20.90;99.90
11848;DHT22;5983;49.966;8.052;2023-09-18T08:58:31;20.80;99.90
11848;DHT22;5983;49.966;8.052;2023-09-18T09:01:01;20.80;99.90
11848;DHT22;5983;49.966;8.052;2023-09-18T09:03:28;20.80;99.90
11848;DHT22;5983;49.966;8.052;2023-09-18T09:05:55;20.80;99.90
11848;DHT22;5983;49.966;8.052;2023-09-18T09:08:23;20.80;99.90
11848;DHT22;5983;49.966;8.052;2023-09-18T09:10:50;20.80;99.90
11848;DHT22;5983;49.966;8.052;2023-09-18T09:13:17;20.90;99.90
11848;DHT22;5983;49.966;8.052;2023-09-18T09:15:44;20.90;99.90
11848;DHT22;5983;49.966;8.052;2023-09-18T09:18:12;21.00;99.90
11848;DHT22;5983;49.966;8.052;2023-09-18T09:20:40;21.00;99.90
11848;DHT22;5983;49.966;8.052;2023-09-18T09:23:08;21.00;99.90
11848;DHT22;5983;49.966;8.052;2023-09-18T09:25:37;21.00;99.90
11848;DHT22;5983;49.966;8.052;2023-09-18T09:28:04;21.00;99.90
11848;DHT22;5983;49.966;8.052;2023-09-18T09:30:33;21.00;99.90
11848;DHT22;5983;49.966;8.052;2023-09-18T09:33:02;21.00;99.90
11848;DHT22;5983;49.966;8.052;2023-09-18T09:35:31;21.00;99.90
11848;DHT22;5983;49.966;8.052;2023-09-18T09:38:00;21.00;99.90
11848;DHT22;5983;49.966;8.052;2023-09-18T09:40:28;21.00;99.90
11848;DHT22;5983;49.966;8.052;2023-09-18T09:42:57;21.00;99.90
11848;DHT22;5983;49.966;8.052;2023-09-18T09:45:28;21.00;99.90
11848;DHT22;5983;49.966;8.052;2023-09-18T09:47:56;21.10;99.90
11848;DHT22;5983;49.966;8.052;2023-09-18T09:50:23;21.20;99.90
11848;DHT22;5983;49.966;8.052;2023-09-18T09:52:52;21.20;99.90
11848;DHT22;5983;49.966;8.052;2023-09-18T09:55:24;21.30;99.90
11848;DHT22;5983;49.966;8.052;2023-09-18T09:57:54;21.40;99.90
11848;DHT22;5983;49.966;8.052;2023-09-18T10:00:27;21.60;99.90
11848;DHT22;5983;49.966;8.052;2023-09-18T10:02:58;21.70;99.90
11848;DHT22;5983;49.966;8.052;2023-09-18T10:05:27;21.90;99.90
11848;DHT22;5983;49.966;8.052;2023-09-18T10:07:57;22.00;99.90
11848;DHT22;5983;49.966;8.052;2023-09-18T10:10:26;22.00;99.90
11848;DHT22;5983;49.966;8.052;2023-09-18T10:12:57;22.10;99.90
11848;DHT22;5983;49.966;8.052;2023-09-18T10:15:28;22.00;99.90
11848;DHT22;5983;49.966;8.052;2023-09-18T10:17:58;22.00;99.90
11848;DHT22;5983;49.966;8.052;2023-09-18T10:20:28;22.00;99.90
11848;DHT22;5983;49.966;8.052;2023-09-18T10:22:57;21.90;99.90
11848;DHT22;5983;49.966;8.052;2023-09-18T10:25:30;21.90;99.90
11848;DHT22;5983;49.966;8.052;2023-09-18T10:27:58;21.90;99.90
11848;DHT22;5983;49.966;8.052;2023-09-18T10:30:28;22.00;99.90
11848;DHT22;5983;49.966;8.052;2023-09-18T10:32:56;22.10;99.90
11848;DHT22;5983;49.966;8.052;2023-09-18T10:35:24;22.10;99.90
11848;DHT22;5983;49.966;8.052;2023-09-18T10:37:51;22.20;99.90
11848;DHT22;5983;49.966;8.052;2023-09-18T10:40:21;22.20;99.90
11848;DHT22;5983;49.966;8.052;2023-09-18T10:42:48;22.20;99.90
11848;DHT22;5983;49.966;8.052;2023-09-18T10:45:18;22.30;99.90
11848;DHT22;5983;49.966;8.052;2023-09-18T10:47:46;22.40;99.90
11848;DHT22;5983;49.966;8.052;2023-09-18T10:50:22;22.50;99.90
11848;DHT22;5983;49.966;8.052;2023-09-18T10:52:50;22.70;99.90
11848;DHT22;5983;49.966;8.052;2023-09-18T10:55:17;22.70;99.90
11848;DHT22;5983;49.966;8.052;2023-09-18T10:57:53;22.80;99.90
11848;DHT22;5983;49.966;8.052;2023-09-18T11:00:21;22.70;99.90
11848;DHT22;5983;49.966;8.052;2023-09-18T11:02:52;22.70;99.90
11848;DHT22;5983;49.966;8.052;2023-09-18T11:05:28;22.70;99.90
11848;DHT22;5983;49.966;8.052;2023-09-18T11:10:55;22.60;99.90
11848;DHT22;5983;49.966;8.052;2023-09-18T11:13:30;22.60;99.90
11848;DHT22;5983;49.966;8.052;2023-09-18T11:15:59;22.50;99.90
11848;DHT22;5983;49.966;8.052;2023-09-18T11:18:35;22.50;99.90
11848;DHT22;5983;49.966;8.052;2023-09-18T11:21:07;22.50;99.90
11848;DHT22;5983;49.966;8.052;2023-09-18T11:23:35;22.60;99.90
11848;DHT22;5983;49.966;8.052;2023-09-18T11:26:03;22.70;99.90
11848;DHT22;5983;49.966;8.052;2023-09-18T11:28:31;22.70;99.90
11848;DHT22;5983;49.966;8.052;2023-09-18T11:30:58;22.70;99.90
11848;DHT22;5983;49.966;8.052;2023-09-18T11:33:32;22.80;99.90
11848;DHT22;5983;49.966;8.052;2023-09-18T11:36:04;22.80;99.90
11848;DHT22;5983;49.966;8.052;2023-09-18T11:38:33;22.70;99.90
11848;DHT22;5983;49.966;8.052;2023-09-18T11:41:05;22.80;99.90
11848;DHT22;5983;49.966;8.052;2023-09-18T11:43:46;22.80;99.90
11848;DHT22;5983;49.966;8.052;2023-09-18T11:46:17;22.80;99.90
11848;DHT22;5983;49.966;8.052;2023-09-18T11:48:45;22.80;99.90
11848;DHT22;5983;49.966;8.052;2023-09-18T11:51:21;22.80;99.90
11848;DHT22;5983;49.966;8.052;2023-09-18T11:53:49;22.90;99.90
11848;DHT22;5983;49.966;8.052;2023-09-18T11:56:19;23.00;99.90
11848;DHT22;5983;49.966;8.052;2023-09-18T11:58:47;23.10;99.90
11848;DHT22;5983;49.966;8.052;2023-09-18T12:01:14;23.20;99.90
11848;DHT22;5983;49.966;8.052;2023-09-18T12:03:41;23.20;99.90
11848;DHT22;5983;49.966;8.052;2023-09-18T12:06:08;23.30;99.90
11848;DHT22;5983;49.966;8.052;2023-09-18T12:08:39;23.30;99.90
11848;DHT22;5983;49.966;8.052;2023-09-18T12:11:07;23.40;99.90
11848;DHT22;5983;49.966;8.052;2023-09-18T12:13:34;23.50;99.90
11848;DHT22;5983;49.966;8.052;2023-09-18T12:16:01;23.50;99.90
11848;DHT22;5983;49.966;8.052;2023-09-18T12:18:30;23.50;99.90
11848;DHT22;5983;49.966;8.052;2023-09-18T12:20:57;23.50;99.90
11848;DHT22;5983;49.966;8.052;2023-09-18T12:23:24;23.60;99.90
11848;DHT22;5983;49.966;8.052;2023-09-18T12:25:58;23.70;99.90
11848;DHT22;5983;49.966;8.052;2023-09-18T12:28:26;23.70;99.90
11848;DHT22;5983;49.966;8.052;2023-09-18T12:30:54;23.70;99.90
11848;DHT22;5983;49.966;8.052;2023-09-18T12:33:24;23.70;99.90
11848;DHT22;5983;49.966;8.052;2023-09-18T12:35:51;23.70;99.90
11848;DHT22;5983;49.966;8.052;2023-09-18T12:38:19;23.80;99.90
11848;DHT22;5983;49.966;8.052;2023-09-18T12:40:50;23.70;99.90
11848;DHT22;5983;49.966;8.052;2023-09-18T12:43:20;23.60;99.90
11848;DHT22;5983;49.966;8.052;2023-09-18T12:45:49;23.40;99.90
11848;DHT22;5983;49.966;8.052;2023-09-18T12:48:16;23.40;99.90
11848;DHT22;5983;49.966;8.052;2023-09-18T12:50:43;23.40;99.90
11848;DHT22;5983;49.966;8.052;2023-09-18T12:53:10;23.50;99.90
11848;DHT22;5983;49.966;8.052;2023-09-18T12:55:37;23.70;99.90
11848;DHT22;5983;49.966;8.052;2023-09-18T12:58:05;23.90;99.90
11848;DHT22;5983;49.966;8.052;2023-09-18T13:00:34;24.00;99.90
11848;DHT22;5983;49.966;8.052;2023-09-18T13:03:01;24.20;99.90
11848;DHT22;5983;49.966;8.052;2023-09-18T13:05:29;24.30;99.90
11848;DHT22;5983;49.966;8.052;2023-09-18T13:08:01;24.30;99.90
11848;DHT22;5983;49.966;8.052;2023-09-18T13:10:29;24.30;99.90
11848;DHT22;5983;49.966;8.052;2023-09-18T13:12:56;24.20;99.90
11848;DHT22;5983;49.966;8.052;2023-09-18T13:15:24;24.20;99.90
11848;DHT22;5983;49.966;8.052;2023-09-18T13:17:55;24.20;99.90
11848;DHT22;5983;49.966;8.052;2023-09-18T13:20:24;24.00;99.90
11848;DHT22;5983;49.966;8.052;2023-09-18T13:22:52;24.00;99.90
11848;DHT22;5983;49.966;8.052;2023-09-18T13:25:20;23.90;99.90
11848;DHT22;5983;49.966;8.052;2023-09-18T13:27:48;23.90;99.90
11848;DHT22;5983;49.966;8.052;2023-09-18T13:30:15;23.90;99.90
11848;DHT22;5983;49.966;8.052;2023-09-18T13:32:43;24.00;99.90
11848;DHT22;5983;49.966;8.052;2023-09-18T13:35:11;24.10;99.90
11848;DHT22;5983;49.966;8.052;2023-09-18T13:37:39;24.20;99.90
11848;DHT22;5983;49.966;8.052;2023-09-18T13:40:06;24.30;99.90
11848;DHT22;5983;49.966;8.052;2023-09-18T13:42:34;24.50;99.90
11848;DHT22;5983;49.966;8.052;2023-09-18T13:45:01;24.50;99.90
11848;DHT22;5983;49.966;8.052;2023-09-18T13:47:30;24.50;99.90
11848;DHT22;5983;49.966;8.052;2023-09-18T13:49:56;24.50;99.90
11848;DHT22;5983;49.966;8.052;2023-09-18T13:52:26;24.70;99.90
11848;DHT22;5983;49.966;8.052;2023-09-18T13:54:53;25.00;99.90
11848;DHT22;5983;49.966;8.052;2023-09-18T13:57:20;25.30;99.90
11848;DHT22;5983;49.966;8.052;2023-09-18T13:59:47;25.50;99.90
11848;DHT22;5983;49.966;8.052;2023-09-18T14:02:15;25.70;99.90
11848;DHT22;5983;49.966;8.052;2023-09-18T14:04:42;25.70;99.90
11848;DHT22;5983;49.966;8.052;2023-09-18T14:07:09;25.70;99.90
11848;DHT22;5983;49.966;8.052;2023-09-18T14:09:37;25.70;99.90
11848;DHT22;5983;49.966;8.052;2023-09-18T14:12:05;25.60;99.90
11848;DHT22;5983;49.966;8.052;2023-09-18T14:14:33;25.60;99.90
11848;DHT22;5983;49.966;8.052;2023-09-18T14:17:00;25.50;99.90
11848;DHT22;5983;49.966;8.052;2023-09-18T14:19:27;25.50;99.90
11848;DHT22;5983;49.966;8.052;2023-09-18T14:21:54;25.60;99.90
11848;DHT22;5983;49.966;8.052;2023-09-18T14:24:20;25.70;99.90
11848;DHT22;5983;49.966;8.052;2023-09-18T14:26:52;25.70;99.90
11848;DHT22;5983;49.966;8.052;2023-09-18T14:29:20;25.50;99.90
11848;DHT22;5983;49.966;8.052;2023-09-18T14:31:47;25.40;99.90
11848;DHT22;5983;49.966;8.052;2023-09-18T14:34:14;25.20;99.90
11848;DHT22;5983;49.966;8.052;2023-09-18T14:36:40;25.00;99.90
11848;DHT22;5983;49.966;8.052;2023-09-18T14:39:07;24.80;99.90
11848;DHT22;5983;49.966;8.052;2023-09-18T14:41:34;24.80;99.90
11848;DHT22;5983;49.966;8.052;2023-09-18T14:44:03;24.70;99.90
11848;DHT22;5983;49.966;8.052;2023-09-18T14:46:30;24.80;99.90
11848;DHT22;5983;49.966;8.052;2023-09-18T14:48:58;24.90;99.90
11848;DHT22;5983;49.966;8.052;2023-09-18T14:51:25;24.90;99.90
11848;DHT22;5983;49.966;8.052;2023-09-18T14:53:53;24.90;99.90
11848;DHT22;5983;49.966;8.052;2023-09-18T14:56:20;24.90;99.90
11848;DHT22;5983;49.966;8.052;2023-09-18T14:58:47;24.90;99.90
11848;DHT22;5983;49.966;8.052;2023-09-18T15:01:16;24.90;99.90
11848;DHT22;5983;49.966;8.052;2023-09-18T15:03:42;24.90;99.90
11848;DHT22;5983;49.966;8.052;2023-09-18T15:06:09;25.00;99.90
11848;DHT22;5983;49.966;8.052;2023-09-18T15:08:36;25.00;99.90
11848;DHT22;5983;49.966;8.052;2023-09-18T15:11:03;24.90;99.90
11848;DHT22;5983;49.966;8.052;2023-09-18T15:13:30;24.80;99.90
11848;DHT22;5983;49.966;8.052;2023-09-18T15:15:57;24.70;99.90
11848;DHT22;5983;49.966;8.052;2023-09-18T15:18:26;24.70;99.90
11848;DHT22;5983;49.966;8.052;2023-09-18T15:20:52;24.60;99.90
11848;DHT22;5983;49.966;8.052;2023-09-18T15:23:20;24.50;99.90
11848;DHT22;5983;49.966;8.052;2023-09-18T15:25:48;24.50;99.90
11848;DHT22;5983;49.966;8.052;2023-09-18T15:28:15;24.50;99.90
11848;DHT22;5983;49.966;8.052;2023-09-18T15:30:42;24.40;99.90
11848;DHT22;5983;49.966;8.052;2023-09-18T15:33:09;24.40;99.90
11848;DHT22;5983;49.966;8.052;2023-09-18T15:35:37;24.40;99.90
11848;DHT22;5983;49.966;8.052;2023-09-18T15:38:05;24.40;99.90
11848;DHT22;5983;49.966;8.052;2023-09-18T15:40:33;24.30;99.90
11848;DHT22;5983;49.966;8.052;2023-09-18T15:43:00;24.30;99.90
11848;DHT22;5983;49.966;8.052;2023-09-18T15:45:26;24.30;99.90
11848;DHT22;5983;49.966;8.052;2023-09-18T15:47:53;24.30;99.90
11848;DHT22;5983;49.966;8.052;2023-09-18T15:53:43;24.20;99.90
11848;DHT22;5983;49.966;8.052;2023-09-18T15:56:10;24.10;99.90
11848;DHT22;5983;49.966;8.052;2023-09-18T15:58:37;24.00;99.90
11848;DHT22;5983;49.966;8.052;2023-09-18T16:01:05;23.90;99.90
11848;DHT22;5983;49.966;8.052;2023-09-18T16:03:33;23.70;99.90